createdAt,value
2023-02-06T00:00:44.992Z,102211.88
2023-02-06T00:03:11.599Z,102211.88
2023-02-06T00:05:38.278Z,102209.31
2023-02-06T00:08:07.076Z,102199.81
2023-02-06T00:10:34.004Z,102197.25
2023-02-06T00:13:00.632Z,102203.28
2023-02-06T00:15:27.002Z,102200.75
2023-02-06T00:17:53.346Z,102200.69
2023-02-06T00:20:19.690Z,102195.59
2023-02-06T00:22:46.068Z,102199.00
2023-02-06T00:25:12.425Z,102207.63
2023-02-06T00:27:39.170Z,102212.78
2023-02-06T00:30:06.191Z,102202.41
2023-02-06T00:32:34.647Z,102198.13
2023-02-06T00:35:01.215Z,102203.31
2023-02-06T00:37:27.680Z,102200.75
2023-02-06T00:39:54.045Z,102199.03
2023-02-06T00:42:20.641Z,102195.56
2023-02-06T00:44:47.010Z,102192.97
2023-02-06T00:47:13.367Z,102198.16
2023-02-06T00:49:39.718Z,102186.94
2023-02-06T00:52:06.052Z,102200.78
2023-02-06T00:54:32.401Z,102193.84
2023-02-06T00:56:58.775Z,102193.03
2023-02-06T00:59:25.144Z,102184.31
2023-02-06T01:01:51.781Z,102193.03
2023-02-06T01:04:18.321Z,102196.50
2023-02-06T01:06:44.652Z,102204.28
2023-02-06T01:09:11.033Z,102211.22
2023-02-06T01:11:37.420Z,102212.06
2023-02-06T01:14:03.901Z,102207.72
2023-02-06T01:16:30.559Z,102211.22
2023-02-06T01:18:56.930Z,102201.66
2023-02-06T01:21:24.904Z,102200.84
2023-02-06T01:23:53.446Z,102190.50
2023-02-06T01:26:22.803Z,102193.94
2023-02-06T01:28:49.951Z,102183.56
2023-02-06T01:31:22.549Z,102187.91
2023-02-06T01:33:50.040Z,102185.31
2023-02-06T01:36:17.758Z,102184.41
2023-02-06T01:38:44.651Z,102193.06
2023-02-06T01:41:12.795Z,102196.53
2023-02-06T01:43:42.976Z,102204.28
2023-02-06T01:46:09.808Z,102193.94
2023-02-06T01:48:44.017Z,102202.59
2023-02-06T01:51:15.093Z,102212.97
2023-02-06T01:53:44.713Z,102218.16
2023-02-06T01:56:11.977Z,102224.19
2023-02-06T01:58:44.279Z,102228.47
2023-02-06T02:01:11.361Z,102216.44
2023-02-06T02:03:41.665Z,102225.06
2023-02-06T02:06:12.248Z,102225.06
2023-02-06T02:08:42.482Z,102243.22
2023-02-06T02:11:11.821Z,102238.03
2023-02-06T02:13:38.664Z,102231.94
2023-02-06T02:16:18.144Z,102223.31
2023-02-06T02:19:07.526Z,102212.09
2023-02-06T02:21:54.867Z,102207.81
2023-02-06T02:24:40.022Z,102200.91
2023-02-06T02:27:17.767Z,102195.72
2023-02-06T02:30:16.611Z,102198.31
2023-02-06T02:32:58.747Z,102189.66
2023-02-06T02:35:32.777Z,102187.97
2023-02-06T02:38:13.467Z,102179.31
2023-02-06T02:40:49.602Z,102175.84
2023-02-06T02:43:28.548Z,102163.75
2023-02-06T02:45:58.563Z,102156.88
2023-02-06T02:48:40.685Z,102149.94
2023-02-06T02:51:07.881Z,102135.22
2023-02-06T02:53:34.572Z,102143.91
2023-02-06T02:56:01.290Z,102144.75
2023-02-06T02:58:32.580Z,102150.84
2023-02-06T03:01:11.543Z,102136.16
2023-02-06T03:03:41.923Z,102138.75
2023-02-06T03:06:28.642Z,102138.78
2023-02-06T03:09:11.510Z,102127.56
2023-02-06T03:11:45.280Z,102128.41
2023-02-06T03:14:22.209Z,102126.69
2023-02-06T03:16:54.478Z,102131.00
2023-02-06T03:19:29.024Z,102124.97
2023-02-06T03:21:55.501Z,102128.44
2023-02-06T03:24:28.518Z,102128.38
2023-02-06T03:26:59.944Z,102121.53
2023-02-06T03:29:29.969Z,102124.13
2023-02-06T03:32:02.319Z,102127.59
2023-02-06T03:34:41.398Z,102128.44
2023-02-06T03:37:08.076Z,102129.31
2023-02-06T03:39:34.823Z,102131.06
2023-02-06T03:42:02.576Z,102129.31
2023-02-06T03:44:33.655Z,102135.38
2023-02-06T03:47:01.560Z,102138.81
2023-02-06T03:49:30.202Z,102142.28
2023-02-06T03:52:04.824Z,102139.66
2023-02-06T03:54:32.252Z,102152.59
2023-02-06T03:57:03.225Z,102139.69
2023-02-06T03:59:30.481Z,102135.38
2023-02-06T04:01:59.292Z,102135.34
2023-02-06T04:04:29.777Z,102134.47
2023-02-06T04:07:21.290Z,102126.72
2023-02-06T04:09:47.856Z,102132.75
2023-02-06T04:12:15.330Z,102131.03
2023-02-06T04:14:42.479Z,102133.66
2023-02-06T04:17:10.325Z,102123.28
2023-02-06T04:19:37.429Z,102118.97
2023-02-06T04:22:04.382Z,102123.28
2023-02-06T04:24:31.195Z,102117.25
2023-02-06T04:26:58.215Z,102122.44
2023-02-06T04:29:24.840Z,102121.59
2023-02-06T04:31:51.467Z,102126.75
2023-02-06T04:34:17.830Z,102127.63
2023-02-06T04:36:44.180Z,102130.25
2023-02-06T04:39:10.543Z,102123.34
2023-02-06T04:41:36.923Z,102122.44
2023-02-06T04:44:03.505Z,102115.53
2023-02-06T04:46:29.885Z,102135.41
2023-02-06T04:48:56.219Z,102138.00
2023-02-06T04:51:22.603Z,102142.28
2023-02-06T04:53:48.949Z,102150.91
2023-02-06T04:56:15.275Z,102161.25
2023-02-06T04:58:41.637Z,102167.28
2023-02-06T05:01:07.994Z,102171.59
2023-02-06T05:03:34.517Z,102163.78
2023-02-06T05:06:02.643Z,102161.19
2023-02-06T05:08:29.303Z,102165.47
2023-02-06T05:10:56.429Z,102162.84
2023-02-06T05:13:23.672Z,102162.00
2023-02-06T05:15:50.456Z,102155.97
2023-02-06T05:18:17.089Z,102159.44
2023-02-06T05:20:43.826Z,102142.97
2023-02-06T05:23:10.485Z,102132.63
2023-02-06T05:25:37.349Z,102136.94
2023-02-06T05:28:06.618Z,102136.06
2023-02-06T05:30:36.220Z,102138.66
2023-02-06T05:33:02.672Z,102143.81
2023-02-06T05:35:29.328Z,102145.53
2023-02-06T05:37:55.716Z,102142.91
2023-02-06T05:40:22.105Z,102148.97
2023-02-06T05:42:48.456Z,102149.81
2023-02-06T05:45:14.817Z,102147.22
2023-02-06T05:47:41.261Z,102140.28
2023-02-06T05:50:07.854Z,102139.38
2023-02-06T05:52:34.321Z,102138.50
2023-02-06T05:55:00.823Z,102142.00
2023-02-06T05:57:27.161Z,102150.59
2023-02-06T05:59:53.499Z,102145.38
2023-02-06T06:02:19.899Z,102135.03
2023-02-06T06:04:46.333Z,102131.56
2023-02-06T06:07:13.104Z,102124.56
2023-02-06T06:09:39.425Z,102122.84
2023-02-06T06:12:05.999Z,102126.31
2023-02-06T06:14:32.336Z,102123.69
2023-02-06T06:16:58.679Z,102128.88
2023-02-06T06:19:25.066Z,102123.63
2023-02-06T06:21:51.629Z,102124.50
2023-02-06T06:24:18.096Z,102121.00
2023-02-06T06:26:44.445Z,102114.94
2023-02-06T06:29:10.769Z,102117.53
2023-02-06T06:31:37.137Z,102120.06
2023-02-06T06:34:03.507Z,102124.44
2023-02-06T06:36:29.907Z,102124.44
2023-02-06T06:38:56.252Z,102133.06
2023-02-06T06:41:22.641Z,102129.53
2023-02-06T06:43:51.289Z,102139.03
2023-02-06T06:46:19.837Z,102127.00
2023-02-06T06:48:46.228Z,102129.56
2023-02-06T06:51:12.612Z,102137.19
2023-02-06T06:53:39.966Z,102132.97
2023-02-06T06:56:07.818Z,102132.94
2023-02-06T06:58:34.568Z,102131.22
2023-02-06T07:01:01.054Z,102119.97
2023-02-06T07:03:27.696Z,102124.31
2023-02-06T07:05:54.119Z,102129.50
2023-02-06T07:08:20.451Z,102127.75
2023-02-06T07:10:47.594Z,102132.91
2023-02-06T07:13:15.422Z,102146.72
2023-02-06T07:15:42.824Z,102134.59
2023-02-06T07:18:11.581Z,102129.41
2023-02-06T07:20:38.214Z,102126.75
2023-02-06T07:23:05.612Z,102127.63
2023-02-06T07:25:32.474Z,102124.13
2023-02-06T07:27:59.092Z,102124.94
2023-02-06T07:30:25.709Z,102132.66
2023-02-06T07:32:52.198Z,102127.47
2023-02-06T07:35:18.695Z,102117.91
2023-02-06T07:37:45.032Z,102106.72
2023-02-06T07:40:12.263Z,102106.69
2023-02-06T07:42:40.169Z,102104.88
2023-02-06T07:45:06.818Z,102110.06
2023-02-06T07:47:33.209Z,102107.44
2023-02-06T07:49:59.578Z,102109.94
2023-02-06T07:52:26.017Z,102112.50
2023-02-06T07:54:52.382Z,102109.09
2023-02-06T07:57:21.795Z,102113.34
2023-02-06T07:59:48.156Z,102109.81
2023-02-06T08:02:14.514Z,102112.94
2023-02-06T08:04:40.960Z,102120.91
2023-02-06T08:07:11.103Z,102122.13
2023-02-06T08:09:37.457Z,102130.03
2023-02-06T08:12:04.040Z,102119.66
2023-02-06T08:14:31.219Z,102117.06
2023-02-06T08:16:57.649Z,102123.97
2023-02-06T08:19:24.070Z,102127.41
2023-02-06T08:21:50.876Z,102130.06
2023-02-06T08:24:17.575Z,102127.97
2023-02-06T08:26:44.017Z,102124.03
2023-02-06T08:29:10.998Z,102127.75
2023-02-06T08:31:39.895Z,102127.16
2023-02-06T08:34:08.041Z,102128.06
2023-02-06T08:36:34.711Z,102119.34
2023-02-06T08:39:01.974Z,102123.56
2023-02-06T08:41:39.268Z,102119.31
2023-02-06T08:44:11.598Z,102114.19
2023-02-06T08:46:38.840Z,102112.31
2023-02-06T08:49:08.164Z,102108.78
2023-02-06T08:51:35.476Z,102107.97
2023-02-06T08:54:05.808Z,102097.53
2023-02-06T08:56:33.837Z,102093.25
2023-02-06T08:59:01.687Z,102087.47
2023-02-06T09:01:30.397Z,102083.91
2023-02-06T09:03:58.373Z,102092.78
2023-02-06T09:06:25.770Z,102083.22
2023-02-06T09:08:53.133Z,102076.31
2023-02-06T09:11:21.943Z,102075.47
2023-02-06T09:13:49.547Z,102071.06
2023-02-06T09:16:18.233Z,102064.09
2023-02-06T09:18:45.166Z,102064.94
2023-02-06T09:21:20.297Z,102065.75
2023-02-06T09:23:49.810Z,102075.31
2023-02-06T09:26:19.167Z,102084.69
2023-02-06T09:28:45.642Z,102085.38
2023-02-06T09:31:12.194Z,102089.09
2023-02-06T09:33:39.434Z,102081.28
2023-02-06T09:36:13.836Z,102088.13
2023-02-06T09:38:44.034Z,102096.84
2023-02-06T09:41:24.042Z,102097.66
2023-02-06T09:43:54.490Z,102106.25
2023-02-06T09:46:27.452Z,102106.19
2023-02-06T09:48:57.102Z,102101.72
2023-02-06T09:51:50.941Z,102111.19
2023-02-06T09:54:30.165Z,102113.03
2023-02-06T09:57:34.840Z,102107.03
2023-02-06T10:00:20.318Z,102100.94
2023-02-06T10:03:08.145Z,102105.22
2023-02-06T10:05:43.650Z,102095.63
2023-02-06T10:08:13.028Z,102087.69
2023-02-06T10:10:49.005Z,102079.84
2023-02-06T10:13:24.515Z,102077.22
2023-02-06T10:15:55.982Z,102068.97
2023-02-06T10:18:28.364Z,102063.19
2023-02-06T10:21:05.986Z,102062.50
2023-02-06T10:23:47.446Z,102069.84
2023-02-06T10:26:19.307Z,102075.91
2023-02-06T10:28:52.430Z,102064.53
2023-02-06T10:31:24.797Z,102063.78
2023-02-06T10:34:10.220Z,102063.78
2023-02-06T10:37:09.959Z,102065.41
2023-02-06T10:39:49.493Z,102048.16
2023-02-06T10:42:25.777Z,102054.16
2023-02-06T10:45:29.986Z,102051.53
2023-02-06T10:48:09.295Z,102059.75
2023-02-06T10:50:44.235Z,102072.00
2023-02-06T10:53:17.837Z,102077.84
2023-02-06T10:55:57.055Z,102083.78
2023-02-06T10:58:37.426Z,102088.97
2023-02-06T11:01:20.206Z,102085.53
2023-02-06T11:04:10.502Z,102092.44
2023-02-06T11:06:40.113Z,102081.19
2023-02-06T11:09:06.494Z,102072.56
2023-02-06T11:11:39.347Z,102079.44
2023-02-06T11:14:18.514Z,102067.31
2023-02-06T11:16:46.719Z,102061.16
2023-02-06T11:19:17.631Z,102040.25
2023-02-06T11:21:43.966Z,102024.63
2023-02-06T11:24:16.721Z,102031.41
2023-02-06T11:26:48.787Z,102027.78
2023-02-06T11:29:22.450Z,102028.59
2023-02-06T11:31:53.179Z,102040.69
2023-02-06T11:34:24.598Z,102039.63
2023-02-06T11:37:02.426Z,102035.25
2023-02-06T11:39:30.605Z,102044.78
2023-02-06T11:42:13.662Z,102047.28
2023-02-06T11:44:42.502Z,102049.69
2023-02-06T11:47:32.306Z,102049.53
2023-02-06T11:50:14.082Z,102049.47
2023-02-06T11:52:44.619Z,102050.22
2023-02-06T11:55:26.298Z,102040.56
2023-02-06T11:58:11.535Z,102038.72
2023-02-06T12:00:56.844Z,102051.06
2023-02-06T12:03:59.255Z,102055.28
2023-02-06T12:06:33.169Z,102048.97
2023-02-06T12:09:01.741Z,102037.78
2023-02-06T12:11:34.557Z,102025.75
2023-02-06T12:14:16.834Z,102033.56
2023-02-06T12:16:47.694Z,102031.75
2023-02-06T12:19:23.889Z,102036.72
2023-02-06T12:21:57.771Z,102039.22
2023-02-06T12:24:30.041Z,102036.69
2023-02-06T12:26:59.332Z,102034.63
2023-02-06T12:29:42.317Z,102036.16
2023-02-06T12:32:21.030Z,102030.25
2023-02-06T12:34:56.204Z,102026.47
2023-02-06T12:37:31.870Z,102037.50
2023-02-06T12:40:00.333Z,102028.44
2023-02-06T12:42:38.541Z,102017.50
2023-02-06T12:45:14.800Z,102024.09
2023-02-06T12:47:56.331Z,102020.88
2023-02-06T12:50:33.831Z,102024.34
2023-02-06T12:53:10.508Z,102029.72
2023-02-06T12:55:44.503Z,102021.84
2023-02-06T12:58:28.101Z,102021.81
2023-02-06T13:01:32.266Z,102015.66
2023-02-06T13:04:05.330Z,102012.94
2023-02-06T13:06:43.860Z,102016.34
2023-02-06T13:09:20.475Z,102002.50
2023-02-06T13:11:47.206Z,102001.91
2023-02-06T13:14:29.003Z,101996.00
2023-02-06T13:17:17.239Z,102004.13
2023-02-06T13:19:43.536Z,101998.91
2023-02-06T13:22:09.808Z,102005.06
2023-02-06T13:24:41.108Z,101993.84
2023-02-06T13:27:07.388Z,101997.47
2023-02-06T13:29:42.739Z,101991.91
2023-02-06T13:32:12.013Z,101995.38
2023-02-06T13:34:44.391Z,101991.81
2023-02-06T13:37:25.879Z,101995.31
2023-02-06T13:40:23.329Z,101998.66
2023-02-06T13:43:25.534Z,102006.38
2023-02-06T13:45:51.810Z,102011.63
2023-02-06T13:48:37.630Z,102014.06
2023-02-06T13:51:29.268Z,102007.53
2023-02-06T13:54:28.249Z,102020.75
2023-02-06T13:57:10.526Z,102019.19
2023-02-06T13:59:40.679Z,102028.03
2023-02-06T14:02:13.313Z,102036.69
2023-02-06T14:04:40.128Z,102041.03
2023-02-06T14:07:28.390Z,102029.63
2023-02-06T14:10:28.248Z,102040.13
2023-02-06T14:13:15.046Z,102034.09
2023-02-06T14:15:56.241Z,102046.31
2023-02-06T14:18:50.779Z,102042.84
2023-02-06T14:21:38.599Z,102048.16
2023-02-06T14:24:38.963Z,102039.50
2023-02-06T14:27:15.190Z,102048.22
2023-02-06T14:29:56.876Z,102050.03
2023-02-06T14:32:43.481Z,102050.97
2023-02-06T14:35:47.595Z,102056.00
2023-02-06T14:38:32.952Z,102059.69
2023-02-06T14:41:01.776Z,102055.41
2023-02-06T14:43:32.142Z,102053.84
2023-02-06T14:46:07.485Z,102060.03
2023-02-06T14:48:47.388Z,102061.91
2023-02-06T14:51:35.243Z,102066.38
2023-02-06T14:54:04.863Z,102070.63
2023-02-06T14:56:37.037Z,102073.19
2023-02-06T14:59:12.376Z,102077.41
2023-02-06T15:01:39.678Z,102074.63
2023-02-06T15:04:15.072Z,102071.69
2023-02-06T15:06:49.645Z,102077.88
2023-02-06T15:09:24.076Z,102081.31
2023-02-06T15:11:56.498Z,102082.16
2023-02-06T15:14:28.466Z,102098.94
2023-02-06T15:17:00.113Z,102119.25
2023-02-06T15:19:29.783Z,102116.66
2023-02-06T15:22:02.702Z,102119.34
2023-02-06T15:24:44.311Z,102120.94
2023-02-06T15:27:30.371Z,102128.97
2023-02-06T15:29:57.238Z,102134.50
2023-02-06T15:32:37.867Z,102145.22
2023-02-06T15:35:19.416Z,102153.25
2023-02-06T15:37:46.022Z,102152.81
2023-02-06T15:40:15.280Z,102159.81
2023-02-06T15:42:42.072Z,102158.47
2023-02-06T15:45:19.237Z,102160.31
2023-02-06T15:47:46.108Z,102166.59
2023-02-06T15:50:18.926Z,102171.88
2023-02-06T15:52:47.430Z,102175.50
2023-02-06T15:55:35.682Z,102168.63
2023-02-06T15:58:05.190Z,102176.53
2023-02-06T16:00:35.444Z,102179.00
2023-02-06T16:03:07.676Z,102177.81
2023-02-06T16:05:40.519Z,102182.50
2023-02-06T16:08:20.200Z,102183.03
2023-02-06T16:10:57.961Z,102195.59
2023-02-06T16:13:27.586Z,102201.81
2023-02-06T16:16:09.469Z,102201.97
2023-02-06T16:18:38.420Z,102199.53
2023-02-06T16:21:18.430Z,102206.59
2023-02-06T16:23:49.051Z,102213.63
2023-02-06T16:26:30.268Z,102218.84
2023-02-06T16:29:16.379Z,102222.28
2023-02-06T16:31:44.734Z,102210.84
2023-02-06T16:34:32.305Z,102219.63
2023-02-06T16:36:58.658Z,102216.03
2023-02-06T16:39:25.045Z,102212.66
2023-02-06T16:41:52.887Z,102219.88
2023-02-06T16:44:20.171Z,102217.31
2023-02-06T16:46:46.760Z,102210.56
2023-02-06T16:49:16.596Z,102207.88
2023-02-06T16:51:44.227Z,102207.88
2023-02-06T16:54:23.275Z,102212.91
2023-02-06T16:56:49.894Z,102220.91
2023-02-06T16:59:16.281Z,102223.69
2023-02-06T17:01:42.685Z,102237.75
2023-02-06T17:04:09.036Z,102238.75
2023-02-06T17:06:36.004Z,102230.16
2023-02-06T17:09:08.836Z,102242.38
2023-02-06T17:11:36.910Z,102254.50
2023-02-06T17:14:03.452Z,102250.28
2023-02-06T17:16:31.213Z,102252.97
2023-02-06T17:18:57.890Z,102253.06
2023-02-06T17:21:24.812Z,102253.97
2023-02-06T17:23:51.708Z,102256.63
2023-02-06T17:26:21.200Z,102249.75
2023-02-06T17:28:48.457Z,102253.31
2023-02-06T17:31:15.224Z,102260.22
2023-02-06T17:33:41.712Z,102260.22
2023-02-06T17:36:15.581Z,102273.28
2023-02-06T17:38:41.925Z,102262.03
2023-02-06T17:41:08.303Z,102269.84
2023-02-06T17:43:36.241Z,102272.44
2023-02-06T17:46:04.892Z,102266.25
2023-02-06T17:48:32.566Z,102260.31
2023-02-06T17:50:59.030Z,102266.44
2023-02-06T17:53:25.371Z,102270.78
2023-02-06T17:55:51.736Z,102275.16
2023-02-06T17:58:18.769Z,102273.47
2023-02-06T18:00:49.170Z,102272.63
2023-02-06T18:03:18.140Z,102276.13
2023-02-06T18:05:45.012Z,102277.88
2023-02-06T18:08:11.920Z,102279.63
2023-02-06T18:10:39.420Z,102274.47
2023-02-06T18:13:05.870Z,102271.06
2023-02-06T18:15:32.346Z,102271.09
2023-02-06T18:17:59.583Z,102281.50
2023-02-06T18:20:25.966Z,102285.88
2023-02-06T18:22:52.428Z,102300.63
2023-02-06T18:25:18.891Z,102309.25
2023-02-06T18:27:45.994Z,102300.63
2023-02-06T18:30:14.543Z,102296.09
2023-02-06T18:32:41.095Z,102304.75
2023-02-06T18:35:09.038Z,102297.72
2023-02-06T18:37:35.715Z,102295.31
2023-02-06T18:40:02.797Z,102290.28
2023-02-06T18:42:47.548Z,102294.69
2023-02-06T18:45:13.935Z,102296.53
2023-02-06T18:47:42.306Z,102298.34
2023-02-06T18:50:12.029Z,102299.25
2023-02-06T18:52:39.293Z,102297.56
2023-02-06T18:55:08.105Z,102302.78
2023-02-06T18:57:35.614Z,102300.28
2023-02-06T19:00:04.026Z,102297.66
2023-02-06T19:02:30.474Z,102286.38
2023-02-06T19:04:58.820Z,102288.03
2023-02-06T19:07:25.545Z,102284.63
2023-02-06T19:09:59.261Z,102286.41
2023-02-06T19:12:30.370Z,102279.53
2023-02-06T19:14:57.988Z,102283.91
2023-02-06T19:17:26.139Z,102276.97
2023-02-06T19:19:52.737Z,102272.72
2023-02-06T19:22:19.227Z,102277.09
2023-02-06T19:24:45.592Z,102280.56
2023-02-06T19:27:13.057Z,102278.03
2023-02-06T19:29:39.569Z,102294.47
2023-02-06T19:32:07.923Z,102295.41
2023-02-06T19:34:36.397Z,102296.28
2023-02-06T19:37:07.668Z,102301.47
2023-02-06T19:39:35.704Z,102311.03
2023-02-06T19:42:06.795Z,102324.88
2023-02-06T19:44:34.061Z,102313.69
2023-02-06T19:47:01.643Z,102328.47
2023-02-06T19:49:28.176Z,102350.25
2023-02-06T19:51:54.828Z,102358.94
2023-02-06T19:54:21.171Z,102362.41
2023-02-06T19:56:47.784Z,102378.00
2023-02-06T19:59:26.053Z,102379.69
2023-02-06T20:02:02.421Z,102373.66
2023-02-06T20:04:34.647Z,102380.59
2023-02-06T20:07:01.552Z,102374.59
2023-02-06T20:09:28.458Z,102379.78
2023-02-06T20:11:55.034Z,102378.91
2023-02-06T20:14:22.123Z,102382.38
2023-02-06T20:16:49.208Z,102393.63
2023-02-06T20:19:18.947Z,102407.44
2023-02-06T20:21:48.123Z,102415.34
2023-02-06T20:24:23.498Z,102417.13
2023-02-06T20:26:55.657Z,102419.72
2023-02-06T20:29:31.638Z,102424.91
2023-02-06T20:31:58.746Z,102430.09
2023-02-06T20:34:26.970Z,102429.25
2023-02-06T20:36:56.832Z,102418.84
2023-02-06T20:39:24.209Z,102414.50
2023-02-06T20:41:50.747Z,102427.56
2023-02-06T20:44:18.291Z,102433.63
2023-02-06T20:46:45.110Z,102432.78
2023-02-06T20:49:20.059Z,102424.09
2023-02-06T20:51:48.923Z,102426.75
2023-02-06T20:54:15.949Z,102418.94
2023-02-06T20:56:42.466Z,102427.63
2023-02-06T20:59:12.716Z,102420.75
2023-02-06T21:01:39.940Z,102414.72
2023-02-06T21:04:09.487Z,102423.44
2023-02-06T21:06:37.306Z,102416.50
2023-02-06T21:09:05.850Z,102404.44
2023-02-06T21:11:35.521Z,102405.31
2023-02-06T21:14:04.813Z,102405.31
2023-02-06T21:16:32.104Z,102414.84
2023-02-06T21:18:59.952Z,102413.97
2023-02-06T21:21:26.733Z,102416.59
2023-02-06T21:23:55.843Z,102411.38
2023-02-06T21:26:23.684Z,102414.03
2023-02-06T21:28:50.484Z,102411.50
2023-02-06T21:31:20.991Z,102422.75
2023-02-06T21:33:49.114Z,102420.16
2023-02-06T21:36:15.790Z,102410.66
2023-02-06T21:38:42.750Z,102409.81
2023-02-06T21:41:13.249Z,102421.03
2023-02-06T21:43:39.659Z,102420.19
2023-02-06T21:46:06.859Z,102410.69
2023-02-06T21:48:34.347Z,102421.06
2023-02-06T21:51:12.706Z,102418.47
2023-02-06T21:53:39.457Z,102422.78
2023-02-06T21:56:11.815Z,102427.97
2023-02-06T21:58:38.154Z,102424.53
2023-02-06T22:01:08.764Z,102425.41
2023-02-06T22:03:35.494Z,102429.72
2023-02-06T22:06:08.417Z,102428.00
2023-02-06T22:08:36.478Z,102419.34
2023-02-06T22:11:10.831Z,102428.88
2023-02-06T22:13:37.173Z,102419.34
2023-02-06T22:16:03.735Z,102414.19
2023-02-06T22:18:30.163Z,102413.34
2023-02-06T22:21:04.204Z,102418.50
2023-02-06T22:23:30.581Z,102417.66
2023-02-06T22:25:56.953Z,102416.78
2023-02-06T22:28:23.311Z,102438.38
2023-02-06T22:30:49.856Z,102438.41
2023-02-06T22:33:16.249Z,102445.28
2023-02-06T22:35:42.634Z,102435.81
2023-02-06T22:38:09.079Z,102427.16
2023-02-06T22:40:35.430Z,102421.13
2023-02-06T22:43:01.770Z,102426.31
2023-02-06T22:45:28.235Z,102435.81
2023-02-06T22:47:54.608Z,102424.59
2023-02-06T22:50:21.912Z,102422.00
2023-02-06T22:53:06.825Z,102426.31
2023-02-06T22:55:57.271Z,102430.59
2023-02-06T22:58:23.643Z,102432.34
2023-02-06T23:00:50.095Z,102431.47
2023-02-06T23:03:16.561Z,102430.59
2023-02-06T23:05:42.947Z,102437.53
2023-02-06T23:08:09.275Z,102437.53
2023-02-06T23:10:35.716Z,102425.41
2023-02-06T23:13:02.256Z,102429.72
2023-02-06T23:15:28.622Z,102426.28
2023-02-06T23:17:58.282Z,102423.69
2023-02-06T23:20:27.304Z,102417.63
2023-02-06T23:22:53.684Z,102421.94
2023-02-06T23:25:20.031Z,102427.97
2023-02-06T23:27:46.448Z,102438.38
2023-02-06T23:30:13.131Z,102433.19
2023-02-06T23:32:39.507Z,102439.22
2023-02-06T23:35:06.084Z,102444.41
2023-02-06T23:37:32.477Z,102434.03
2023-02-06T23:39:58.960Z,102437.47
2023-02-06T23:42:25.308Z,102447.81
2023-02-06T23:44:51.670Z,102446.09
2023-02-06T23:47:18.024Z,102446.09
2023-02-06T23:49:44.377Z,102450.41
2023-02-06T23:52:10.773Z,102450.41
2023-02-06T23:54:37.206Z,102447.81
2023-02-06T23:57:03.683Z,102445.22
2023-02-06T23:59:30.082Z,102446.09
